Farmington, NM

6:25 PM MDT on April 18, 2015 (GMT -0600)
Butler and 23rd Street | | Change Station
CLOSE
Current Station
Personal Weather Station
Location: Farmington, NM
Elevation: 5500 ft
Nearby Weather Stations

Elev 5500 ft 36.75 °N, 108.20 °W | Updated 8 seconds ago

Scattered Clouds
Scattered Clouds
56.0 °F
Feels Like 56.0 °F
N
10.0
Wind Variable Wind from WNW
Gusts 28.0 mph

Today
High -- | Low -- °F
--% Chance of Precip.
Yesterday
High -- | Low -- °F
Precip. -- in
6:35 AM 7:49 PM
New Moon, 0% visible
Pressure 29.90 in
Visibility 10.0 miles
Clouds Scattered Clouds 7000 ft
Dew Point 33 °F
Humidity 42%
Rainfall 0.29 in
Snow Depth Not available.
UV 2 out of 12
Pollen 7.50 out of 12
Air Quality Not available.
Flu Activity Local Activity
METAR KFMN 182353Z 29022G28KT 10SM SCT070 14/M01 A2993 RMK AO2 PK WND 28034/2313 SLP124 T01391006 10150 20067 56012

More Conditions Fewer Conditions

Pressure 29.90 in
Visibility 10.0 miles
Clouds Scattered Clouds 7000 ft
Dew Point 33 °F
Humidity 42%
Rainfall 0.29 in
Snow Depth Not available.
UV 2 out of 12
Pollen 7.50 out of 12
Air Quality Not available.
Flu Activity Local Activity
METAR KFMN 182353Z 29022G28KT 10SM SCT070 14/M01 A2993 RMK AO2 PK WND 28034/2313 SLP124 T01391006 10150 20067 56012

More Conditions Fewer Conditions

10-Day Weather Forecast

Almanac

Astronomy

Apr. 18, 2015 Rise Set
Actual Time
Civil Twilight
Nautical Twilight
Astronomical Twilight
Moon
Length of Visible Light
Length of Day
Tomorrow will be .
, % of the Moon is Illuminated

Today's Extremes

State Highs State Lows

Community

WunderPhotos

Upload Photos

1,814,594 photos uploaded!

WunderBlogs® & News

Nearby

Air Quality

  Air Quality AQ Index Pollutant
Not available.

Snow Depth

Station Depth Elevation

Earthquake Activity

City Distance Mag. Time & Date
Minimum magnitude displayed is 2.5.

Coastal Water Temperatures

Place Temperature

Stations

Nearby Weather Stations

Station Location Temp. Windchill Dew Point Humidity Wind Precip. Elev Updated Type